Ron Hunter — WDH4137 — position and weather

sailwx.info

Track history (hours):
 
Tides and Currents Weather Stations Pressure Air Temp Water Temp Dewpoint Dewpoint Depression Visibility Wind Speed Wind Dir Waves Ship Positions

Ron Hunter

Owner: HF Marine, LLC, Nashville, TN. More information available from US FCC via Universal Licensing System and Coast Guard Vessel Documentation Center.

Last reported at 2018-Jan-25 17:08 UTC. Time now 2018-Feb-25 14:12 UTC.
Position N 32°41' W 091°04'.
Warning: this ship's position is 30 days out of date.

Length 48 m; draft 3 m.

Type: Towing. MMSI: 367614550.

Date/timePositionNaut miles runAvg speedWind from/ knotsBaromVisibWave heightAir tempDewpointWater temp
2018-Jan-25 17:08N 32°41' W 091°04'0 0.0
2018-Jan-25 17:00N 32°41' W 091°04'3 1.8
2018-Jan-25 15:16N 32°40' W 091°08'1 2.9
2018-Jan-25 15:00N 32°40' W 091°08'1 2.5
2018-Jan-25 14:30N 32°38' W 091°09'1 2.7
2018-Jan-25 14:00N 32°37' W 091°09'0 0.0
2018-Jan-25 13:30N 32°37' W 091°09'0 0.8
2018-Jan-25 13:01N 32°37' W 091°09'2 3.0
2018-Jan-25 12:30N 32°36' W 091°08'2 3.1
2018-Jan-25 12:01N 32°34' W 091°07'2 3.0
2018-Jan-25 11:30N 32°33' W 091°06'1 2.6
2018-Jan-25 11:01N 32°32' W 091°06'2 3.9
2018-Jan-25 10:30N 32°30' W 091°07'2 3.3
2018-Jan-25 10:00N 32°28' W 091°07'2 3.5
2018-Jan-25 09:31N 32°27' W 091°05'2 3.4
2018-Jan-25 09:00N 32°26' W 091°03'2 3.3
2018-Jan-25 08:30N 32°26' W 091°02'1 2.7
2018-Jan-25 08:01N 32°25' W 091°00'1 2.8
2018-Jan-25 07:31N 32°24' W 090°59'1 2.9
2018-Jan-25 07:01N 32°23' W 091°00'1 2.8
2018-Jan-25 06:31N 32°21' W 090°60'2 4.1
2018-Jan-25 06:00N 32°21' W 090°57'2 3.6
2018-Jan-25 05:30N 32°21' W 090°55'2 3.1
2018-Jan-25 05:00N 32°19' W 090°54'2 3.2
2018-Jan-25 04:30N 32°18' W 090°55'0 0.0
2018-Jan-25 04:00N 32°18' W 090°55'0 0.0
2018-Jan-25 03:31N 32°18' W 090°55'0 0.0
2018-Jan-25 03:01N 32°18' W 090°55'0 0.0
2018-Jan-25 02:31N 32°18' W 090°55'0 0.0
2018-Jan-25 02:01N 32°18' W 090°55'0 0.0
2018-Jan-25 01:30N 32°18' W 090°55'0 0.0
2018-Jan-25 01:00N 32°18' W 090°55'0 0.0
2018-Jan-25 00:30N 32°18' W 090°55'0 0.5
2018-Jan-25 00:00N 32°18' W 090°55'0 0.6
2018-Jan-24 23:31N 32°18' W 090°55'0 0.0
2018-Jan-24 23:00N 32°18' W 090°55'0 0.0
2018-Jan-24 22:30N 32°18' W 090°55'0 0.0
2018-Jan-24 22:00N 32°18' W 090°55'0 0.0
2018-Jan-24 21:30N 32°18' W 090°55'0 0.9
2018-Jan-24 21:01N 32°18' W 090°56'2 3.6
2018-Jan-24 20:31N 32°17' W 090°57'2 3.6
2018-Jan-24 20:00N 32°15' W 090°59'1 3.0
2018-Jan-24 19:30N 32°14' W 090°59'1 2.7
2018-Jan-24 19:00N 32°13' W 090°59'0 0.9
2018-Jan-24 18:28N 32°12' W 090°59'1 1.8
2018-Jan-24 18:00N 32°11' W 090°60'2 3.3
2018-Jan-24 17:30N 32°10' W 091°00'2 3.5
2018-Jan-24 17:00N 32°08' W 091°00'2 2.8
2018-Jan-24 16:28N 32°07' W 091°02'3 3.5
2018-Jan-24 15:35N 32°08' W 091°05'0 3.4
2018-Jan-24 15:27N 32°08' W 091°06'1 3.0
2018-Jan-24 15:00N 32°07' W 091°06'4 3.5
2018-Jan-24 13:50N 32°03' W 091°03'1 4.0
2018-Jan-24 13:30N 32°02' W 091°04'2 3.5
2018-Jan-24 12:57N 32°00' W 091°05'5 3.2
2018-Jan-24 11:14N 31°58' W 091°11'1 3.7
2018-Jan-24 11:00N 31°58' W 091°11'  
2018-Jan-20 08:05N 31°49' W 091°21'1 8.8
2018-Jan-20 07:58N 31°50' W 091°21'3 4.7
2018-Jan-20 07:22N 31°51' W 091°18'3 7.8
2018-Jan-20 06:55N 31°52' W 091°14'5 7.9
2018-Jan-20 06:17N 31°57' W 091°11'3 7.0
2018-Jan-20 05:51N 31°59' W 091°09'3 7.8
2018-Jan-20 05:26N 31°60' W 091°05'4 8.1
2018-Jan-20 04:58N 32°03' W 091°03'4 7.8
2018-Jan-20 04:30N 32°06' W 091°06'2 3.5
2018-Jan-20 04:00N 32°08' W 091°06'4 7.6
2018-Jan-20 03:30N 32°07' W 091°01'4 7.9
2018-Jan-20 03:01N 32°11' W 090°60'4 8.4
2018-Jan-20 02:31N 32°15' W 090°59'4 8.0
2018-Jan-20 02:00N 32°18' W 090°55'3 5.7
2018-Jan-20 01:31N 32°21' W 090°55'4 7.2
2018-Jan-20 01:00N 32°21' W 090°59'3 6.9
2018-Jan-20 00:30N 32°25' W 090°59'4 7.9
2018-Jan-20 00:00N 32°26' W 091°04'4 7.7
2018-Jan-19 23:31N 32°29' W 091°07'4 8.5
2018-Jan-19 23:00N 32°33' W 091°06'4 8.2
2018-Jan-19 22:30N 32°36' W 091°09'10 4.0
2018-Jan-19 20:04N 32°46' W 091°09'  
Track history (hours):
 
Tides and Currents Weather Stations Pressure Air Temp Water Temp Dewpoint Dewpoint Depression Visibility Wind Speed Wind Dir Waves Ship Positions

Ron Hunter

Owner: HF Marine, LLC, Nashville, TN. More information available from US FCC via Universal Licensing System and Coast Guard Vessel Documentation Center.

Last reported at 2018-Jan-25 17:08 UTC. Time now 2018-Feb-25 14:12 UTC.
Position N 32°41' W 091°04'.
Warning: this ship's position is 30 days out of date.

Length 48 m; draft 3 m.

Type: Towing. MMSI: 367614550.

Date/timePositionNaut miles runAvg speedWind from/ knotsBaromVisibWave heightAir tempDewpointWater temp
2018-Jan-25 17:08N 32°41' W 091°04'0 0.0
2018-Jan-25 17:00N 32°41' W 091°04'3 1.8
2018-Jan-25 15:16N 32°40' W 091°08'1 2.9
2018-Jan-25 15:00N 32°40' W 091°08'1 2.5
2018-Jan-25 14:30N 32°38' W 091°09'1 2.7
2018-Jan-25 14:00N 32°37' W 091°09'0 0.0
2018-Jan-25 13:30N 32°37' W 091°09'0 0.8
2018-Jan-25 13:01N 32°37' W 091°09'2 3.0
2018-Jan-25 12:30N 32°36' W 091°08'2 3.1
2018-Jan-25 12:01N 32°34' W 091°07'2 3.0
2018-Jan-25 11:30N 32°33' W 091°06'1 2.6
2018-Jan-25 11:01N 32°32' W 091°06'2 3.9
2018-Jan-25 10:30N 32°30' W 091°07'2 3.3
2018-Jan-25 10:00N 32°28' W 091°07'2 3.5
2018-Jan-25 09:31N 32°27' W 091°05'2 3.4
2018-Jan-25 09:00N 32°26' W 091°03'2 3.3
2018-Jan-25 08:30N 32°26' W 091°02'1 2.7
2018-Jan-25 08:01N 32°25' W 091°00'1 2.8
2018-Jan-25 07:31N 32°24' W 090°59'1 2.9
2018-Jan-25 07:01N 32°23' W 091°00'1 2.8
2018-Jan-25 06:31N 32°21' W 090°60'2 4.1
2018-Jan-25 06:00N 32°21' W 090°57'2 3.6
2018-Jan-25 05:30N 32°21' W 090°55'2 3.1
2018-Jan-25 05:00N 32°19' W 090°54'2 3.2
2018-Jan-25 04:30N 32°18' W 090°55'0 0.0
2018-Jan-25 04:00N 32°18' W 090°55'0 0.0
2018-Jan-25 03:31N 32°18' W 090°55'0 0.0
2018-Jan-25 03:01N 32°18' W 090°55'0 0.0
2018-Jan-25 02:31N 32°18' W 090°55'0 0.0
2018-Jan-25 02:01N 32°18' W 090°55'0 0.0
2018-Jan-25 01:30N 32°18' W 090°55'0 0.0
2018-Jan-25 01:00N 32°18' W 090°55'0 0.0
2018-Jan-25 00:30N 32°18' W 090°55'0 0.5
2018-Jan-25 00:00N 32°18' W 090°55'0 0.6
2018-Jan-24 23:31N 32°18' W 090°55'0 0.0
2018-Jan-24 23:00N 32°18' W 090°55'0 0.0
2018-Jan-24 22:30N 32°18' W 090°55'0 0.0
2018-Jan-24 22:00N 32°18' W 090°55'0 0.0
2018-Jan-24 21:30N 32°18' W 090°55'0 0.9
2018-Jan-24 21:01N 32°18' W 090°56'2 3.6
2018-Jan-24 20:31N 32°17' W 090°57'2 3.6
2018-Jan-24 20:00N 32°15' W 090°59'1 3.0
2018-Jan-24 19:30N 32°14' W 090°59'1 2.7
2018-Jan-24 19:00N 32°13' W 090°59'0 0.9
2018-Jan-24 18:28N 32°12' W 090°59'1 1.8
2018-Jan-24 18:00N 32°11' W 090°60'2 3.3
2018-Jan-24 17:30N 32°10' W 091°00'2 3.5
2018-Jan-24 17:00N 32°08' W 091°00'2 2.8
2018-Jan-24 16:28N 32°07' W 091°02'3 3.5
2018-Jan-24 15:35N 32°08' W 091°05'0 3.4
2018-Jan-24 15:27N 32°08' W 091°06'1 3.0
2018-Jan-24 15:00N 32°07' W 091°06'4 3.5
2018-Jan-24 13:50N 32°03' W 091°03'1 4.0
2018-Jan-24 13:30N 32°02' W 091°04'2 3.5
2018-Jan-24 12:57N 32°00' W 091°05'5 3.2
2018-Jan-24 11:14N 31°58' W 091°11'1 3.7
2018-Jan-24 11:00N 31°58' W 091°11'  
2018-Jan-20 08:05N 31°49' W 091°21'1 8.8
2018-Jan-20 07:58N 31°50' W 091°21'3 4.7
2018-Jan-20 07:22N 31°51' W 091°18'3 7.8
2018-Jan-20 06:55N 31°52' W 091°14'5 7.9
2018-Jan-20 06:17N 31°57' W 091°11'3 7.0
2018-Jan-20 05:51N 31°59' W 091°09'3 7.8
2018-Jan-20 05:26N 31°60' W 091°05'4 8.1
2018-Jan-20 04:58N 32°03' W 091°03'4 7.8
2018-Jan-20 04:30N 32°06' W 091°06'2 3.5
2018-Jan-20 04:00N 32°08' W 091°06'4 7.6
2018-Jan-20 03:30N 32°07' W 091°01'4 7.9
2018-Jan-20 03:01N 32°11' W 090°60'4 8.4
2018-Jan-20 02:31N 32°15' W 090°59'4 8.0
2018-Jan-20 02:00N 32°18' W 090°55'3 5.7
2018-Jan-20 01:31N 32°21' W 090°55'4 7.2
2018-Jan-20 01:00N 32°21' W 090°59'3 6.9
2018-Jan-20 00:30N 32°25' W 090°59'4 7.9
2018-Jan-20 00:00N 32°26' W 091°04'4 7.7
2018-Jan-19 23:31N 32°29' W 091°07'4 8.5
2018-Jan-19 23:00N 32°33' W 091°06'4 8.2
2018-Jan-19 22:30N 32°36' W 091°09'10 4.0
2018-Jan-19 20:04N 32°46' W 091°09'  

Dump ship's entire track history